createdAt,value
2018-08-28T00:00:21.093Z,0
2018-08-28T00:01:21.324Z,0
2018-08-28T00:02:21.336Z,0
2018-08-28T00:03:21.317Z,0
2018-08-28T00:04:21.313Z,0
2018-08-28T00:05:20.808Z,0
2018-08-28T00:06:20.799Z,0
2018-08-28T00:07:21.305Z,0
2018-08-28T00:08:21.039Z,0
2018-08-28T00:09:20.786Z,0
2018-08-28T00:10:21.288Z,0
2018-08-28T00:11:21.286Z,0
2018-08-28T00:12:21.283Z,0
2018-08-28T00:13:21.275Z,0
2018-08-28T00:14:21.268Z,0
2018-08-28T00:15:21.014Z,0
2018-08-28T00:16:21.521Z,0
2018-08-28T00:17:21.081Z,0
2018-08-28T00:18:21.250Z,0
2018-08-28T00:19:21.255Z,0
2018-08-28T00:20:20.993Z,0
2018-08-28T00:21:21.241Z,0
2018-08-28T00:22:20.982Z,0
2018-08-28T00:23:21.236Z,0
2018-08-28T00:24:20.981Z,0
2018-08-28T00:25:20.980Z,0
2018-08-28T00:26:21.225Z,0
2018-08-28T00:27:20.967Z,0
2018-08-28T00:28:21.209Z,0
2018-08-28T00:29:21.215Z,0
2018-08-28T00:30:20.948Z,0
2018-08-28T00:31:20.942Z,0
2018-08-28T00:32:21.196Z,0
2018-08-28T00:33:20.936Z,0
2018-08-28T00:34:21.184Z,0
2018-08-28T00:35:21.177Z,0
2018-08-28T00:36:21.174Z,0
2018-08-28T00:37:21.175Z,0
2018-08-28T00:38:20.919Z,0
2018-08-28T00:39:21.161Z,0
2018-08-28T00:40:20.906Z,0
2018-08-28T00:41:20.648Z,0
2018-08-28T00:42:21.152Z,0
2018-08-28T00:43:20.901Z,0
2018-08-28T00:44:21.143Z,0
2018-08-28T00:45:20.891Z,0
2018-08-28T00:46:21.136Z,0
2018-08-28T00:47:21.130Z,0
2018-08-28T00:48:21.121Z,0
2018-08-28T00:49:21.119Z,0
2018-08-28T00:50:20.868Z,0
2018-08-28T00:51:20.609Z,0
2018-08-28T00:52:21.346Z,0
2018-08-28T00:53:20.859Z,0
2018-08-28T00:54:21.103Z,0
2018-08-28T00:55:21.100Z,0
2018-08-28T00:56:21.090Z,0
2018-08-28T00:57:21.084Z,0
2018-08-28T00:58:23.629Z,0
2018-08-28T00:59:20.830Z,0
2018-08-28T01:00:20.572Z,0
2018-08-28T01:01:25.106Z,0
2018-08-28T01:02:21.065Z,0
2018-08-28T01:03:21.065Z,0
2018-08-28T01:04:21.055Z,0
2018-08-28T01:05:21.052Z,0
2018-08-28T01:06:25.494Z,0
2018-08-28T01:07:21.039Z,0
2018-08-28T01:09:23.117Z,0
2018-08-28T01:10:20.528Z,0
2018-08-28T01:11:21.029Z,0
2018-08-28T01:13:24.793Z,0
2018-08-28T01:14:21.015Z,0
2018-08-28T01:17:26.100Z,0
2018-08-28T01:18:20.999Z,0
2018-08-28T01:19:26.341Z,0
2018-08-28T01:21:20.992Z,0
2018-08-28T01:22:20.976Z,0
2018-08-28T01:23:23.272Z,0
2018-08-28T01:24:20.972Z,0
2018-08-28T01:25:20.970Z,0
2018-08-28T01:26:20.958Z,0
2018-08-28T01:27:20.702Z,0
2018-08-28T01:28:20.446Z,0
2018-08-28T01:29:20.946Z,0
2018-08-28T01:30:20.441Z,0
2018-08-28T01:31:20.936Z,0
2018-08-28T01:32:20.931Z,0
2018-08-28T01:33:20.682Z,0
2018-08-28T01:34:20.924Z,0
2018-08-28T01:35:24.432Z,0
2018-08-28T01:36:20.917Z,0
2018-08-28T01:37:21.138Z,0
2018-08-28T01:38:20.908Z,0
2018-08-28T01:39:20.908Z,0
2018-08-28T01:40:20.900Z,0
2018-08-28T01:41:20.898Z,0
2018-08-28T01:42:20.385Z,0
2018-08-28T01:43:20.635Z,0
2018-08-28T01:44:20.628Z,0
2018-08-28T01:45:20.879Z,0
2018-08-28T01:46:20.625Z,0
2018-08-28T01:47:33.607Z,0
2018-08-28T01:48:20.610Z,0
2018-08-28T01:49:20.622Z,0
2018-08-28T01:50:20.854Z,0
2018-08-28T01:51:20.601Z,0
2018-08-28T01:52:20.593Z,0
2018-08-28T01:53:20.841Z,0
2018-08-28T01:54:20.838Z,0
2018-08-28T01:55:20.837Z,0
2018-08-28T01:56:20.581Z,0
2018-08-28T01:57:20.326Z,0
2018-08-28T01:58:20.839Z,0
2018-08-28T01:59:20.815Z,0
2018-08-28T02:00:33.294Z,0
2018-08-28T02:01:20.806Z,0
2018-08-28T02:02:20.554Z,0
2018-08-28T02:03:20.797Z,0
2018-08-28T02:04:20.794Z,0
2018-08-28T02:05:20.801Z,0
2018-08-28T02:06:20.788Z,0
2018-08-28T02:07:20.788Z,0
2018-08-28T02:08:20.272Z,0
2018-08-28T02:09:20.805Z,0
2018-08-28T02:10:20.776Z,0
2018-08-28T02:11:20.511Z,0
2018-08-28T02:12:20.513Z,0
2018-08-28T02:13:21.198Z,0
2018-08-28T02:14:20.751Z,0
2018-08-28T02:15:20.497Z,0
2018-08-28T02:16:20.753Z,0
2018-08-28T02:17:20.486Z,0
2018-08-28T02:18:20.741Z,0
2018-08-28T02:19:20.729Z,0
2018-08-28T02:20:20.726Z,0
2018-08-28T02:21:20.736Z,0
2018-08-28T02:22:20.967Z,0
2018-08-28T02:23:20.709Z,0
2018-08-28T02:24:20.460Z,0
2018-08-28T02:25:20.707Z,0
2018-08-28T02:26:20.704Z,0
2018-08-28T02:27:20.442Z,0
2018-08-28T02:28:20.688Z,0
2018-08-28T02:29:20.685Z,0
2018-08-28T02:30:20.437Z,0
2018-08-28T02:31:20.673Z,0
2018-08-28T02:32:20.668Z,0
2018-08-28T02:33:20.674Z,0
2018-08-28T02:34:20.663Z,0
2018-08-28T02:35:20.661Z,0
2018-08-28T02:36:20.655Z,0
2018-08-28T02:37:20.398Z,0
2018-08-28T02:38:20.393Z,0
2018-08-28T02:39:20.401Z,0
2018-08-28T02:40:20.631Z,0
2018-08-28T02:41:20.379Z,0
2018-08-28T02:42:20.631Z,0
2018-08-28T02:43:20.622Z,0
2018-08-28T02:44:20.622Z,0
2018-08-28T02:45:20.619Z,0
2018-08-28T02:46:20.109Z,0
2018-08-28T02:47:20.348Z,0
2018-08-28T02:48:20.343Z,0
2018-08-28T02:49:20.343Z,0
2018-08-28T02:50:20.344Z,0
2018-08-28T02:51:20.351Z,0
2018-08-28T02:52:20.583Z,0
2018-08-28T02:53:20.823Z,0
2018-08-28T02:54:20.568Z,0
2018-08-28T02:55:20.312Z,0
2018-08-28T02:56:21.223Z,0
2018-08-28T02:57:20.302Z,0
2018-08-28T02:58:20.558Z,0
2018-08-28T02:59:20.308Z,0
2018-08-28T03:00:20.296Z,0
2018-08-28T03:01:20.033Z,0
2018-08-28T03:02:20.531Z,0
2018-08-28T03:03:20.534Z,0
2018-08-28T03:05:20.559Z,0
2018-08-28T03:06:20.314Z,0
2018-08-28T03:07:20.260Z,0
2018-08-28T03:08:20.510Z,0
2018-08-28T03:09:20.502Z,0
2018-08-28T03:10:20.504Z,0
2018-08-28T03:11:20.327Z,0
2018-08-28T03:12:20.236Z,0
2018-08-28T03:13:20.228Z,0
2018-08-28T03:14:20.227Z,0
2018-08-28T03:15:20.220Z,0
2018-08-28T03:16:20.540Z,0
2018-08-28T03:17:20.465Z,0
2018-08-28T03:18:20.464Z,0
2018-08-28T03:19:20.447Z,0
2018-08-28T03:20:20.444Z,0
2018-08-28T03:21:20.191Z,0
2018-08-28T03:22:20.184Z,0
2018-08-28T03:23:20.433Z,0
2018-08-28T03:24:20.673Z,0
2018-08-28T03:25:20.417Z,0
2018-08-28T03:26:20.417Z,0
2018-08-28T03:27:20.418Z,0
2018-08-28T03:28:20.412Z,0
2018-08-28T03:29:20.308Z,0
2018-08-28T03:30:20.413Z,0
2018-08-28T03:31:20.395Z,0
2018-08-28T03:32:20.395Z,0
2018-08-28T03:33:20.125Z,0
2018-08-28T03:34:20.121Z,0
2018-08-28T03:35:20.381Z,0
2018-08-28T03:36:20.364Z,0
2018-08-28T03:37:20.415Z,0
2018-08-28T03:38:20.104Z,0
2018-08-28T03:39:19.845Z,0
2018-08-28T03:40:20.361Z,0
2018-08-28T03:41:20.100Z,0
2018-08-28T03:42:20.336Z,0
2018-08-28T03:43:20.327Z,0
2018-08-28T03:44:20.319Z,0
2018-08-28T03:45:20.318Z,0
2018-08-28T03:46:20.320Z,0
2018-08-28T03:48:25.397Z,0
2018-08-28T03:49:20.043Z,0
2018-08-28T03:50:20.290Z,0
2018-08-28T03:51:20.031Z,0
2018-08-28T03:53:25.372Z,0
2018-08-28T03:54:20.269Z,0
2018-08-28T03:55:20.687Z,0
2018-08-28T03:56:20.261Z,0
2018-08-28T03:57:20.260Z,0
2018-08-28T03:58:19.745Z,0
2018-08-28T03:59:24.062Z,0
2018-08-28T04:00:20.233Z,0
2018-08-28T04:01:19.978Z,0
2018-08-28T04:02:19.725Z,0
2018-08-28T04:03:19.211Z,0
2018-08-28T04:04:19.957Z,0
2018-08-28T04:05:20.005Z,0
2018-08-28T04:07:20.204Z,5
2018-08-28T04:08:20.203Z,5
2018-08-28T04:09:19.946Z,5
2018-08-28T04:10:19.679Z,5
2018-08-28T04:11:19.925Z,5
2018-08-28T04:12:19.919Z,10
2018-08-28T04:13:20.167Z,10
2018-08-28T04:14:19.912Z,10
2018-08-28T04:15:20.153Z,10
2018-08-28T04:16:19.896Z,10
2018-08-28T04:17:20.051Z,10
2018-08-28T04:18:20.139Z,10
2018-08-28T04:19:19.884Z,15
2018-08-28T04:20:19.618Z,15
2018-08-28T04:21:20.118Z,15
2018-08-28T04:22:20.174Z,15
2018-08-28T04:23:20.107Z,20
2018-08-28T04:24:21.380Z,20
2018-08-28T04:25:20.095Z,25
2018-08-28T04:26:19.847Z,25
2018-08-28T04:27:20.099Z,25
2018-08-28T04:28:20.078Z,30
2018-08-28T04:29:20.075Z,30
2018-08-28T04:30:20.176Z,35
2018-08-28T04:31:20.063Z,35
2018-08-28T04:32:20.066Z,35
2018-08-28T04:33:19.817Z,40
2018-08-28T04:34:20.059Z,40
2018-08-28T04:35:20.042Z,40
2018-08-28T04:36:20.042Z,40
2018-08-28T04:37:20.032Z,40
2018-08-28T04:38:19.525Z,40
2018-08-28T04:39:19.765Z,40
2018-08-28T04:40:20.011Z,45
2018-08-28T04:41:20.012Z,40
2018-08-28T04:42:20.003Z,40
2018-08-28T04:43:19.746Z,45
2018-08-28T04:44:19.742Z,45
2018-08-28T04:45:19.986Z,45
2018-08-28T04:46:19.991Z,45
2018-08-28T04:47:19.723Z,50
2018-08-28T04:48:19.720Z,50
2018-08-28T04:49:19.965Z,50
2018-08-28T04:50:19.710Z,50
2018-08-28T04:51:19.955Z,50
2018-08-28T04:52:19.192Z,50
2018-08-28T04:53:19.692Z,55
2018-08-28T04:54:20.032Z,55
2018-08-28T04:55:19.935Z,60
2018-08-28T04:56:19.682Z,65
2018-08-28T04:57:19.670Z,65
2018-08-28T04:58:19.667Z,65
2018-08-28T04:59:19.670Z,65
2018-08-28T05:00:19.654Z,65
2018-08-28T05:01:19.655Z,70
2018-08-28T05:02:19.647Z,70
2018-08-28T05:03:19.392Z,70
2018-08-28T05:04:19.132Z,75
2018-08-28T05:05:19.635Z,75
2018-08-28T05:06:19.375Z,75
2018-08-28T05:07:19.625Z,80
2018-08-28T05:08:19.871Z,80
2018-08-28T05:09:19.616Z,80
2018-08-28T05:10:19.862Z,85
2018-08-28T05:11:19.603Z,90
2018-08-28T05:12:19.604Z,95
2018-08-28T05:13:19.594Z,95
2018-08-28T05:14:19.590Z,100
2018-08-28T05:15:19.858Z,100
2018-08-28T05:16:19.581Z,105
2018-08-28T05:17:19.624Z,105
2018-08-28T05:18:19.328Z,110
2018-08-28T05:19:19.907Z,115
2018-08-28T05:20:19.571Z,120
2018-08-28T05:21:19.818Z,120
2018-08-28T05:22:19.809Z,130
2018-08-28T05:23:19.804Z,130
2018-08-28T05:24:19.802Z,135
2018-08-28T05:25:19.811Z,140
2018-08-28T05:26:19.540Z,140
2018-08-28T05:27:19.287Z,145
2018-08-28T05:28:19.285Z,150
2018-08-28T05:29:19.292Z,150
2018-08-28T05:30:19.597Z,155
2018-08-28T05:31:19.778Z,170
2018-08-28T05:32:19.259Z,160
2018-08-28T05:33:19.515Z,155
2018-08-28T05:34:19.760Z,155
2018-08-28T05:35:19.499Z,155
2018-08-28T05:36:19.507Z,160
2018-08-28T05:37:19.493Z,155
2018-08-28T05:38:19.807Z,150
2018-08-28T05:39:19.490Z,150
2018-08-28T05:40:19.481Z,160
2018-08-28T05:41:19.493Z,170
2018-08-28T05:42:19.725Z,160
2018-08-28T05:43:19.475Z,170
2018-08-28T05:44:19.473Z,170
2018-08-28T05:45:19.210Z,175
2018-08-28T05:46:19.206Z,175
2018-08-28T05:47:19.462Z,180
2018-08-28T05:48:19.707Z,185
2018-08-28T05:49:18.998Z,185
2018-08-28T05:50:19.448Z,190
2018-08-28T05:51:19.717Z,195
2018-08-28T05:53:19.438Z,205
2018-08-28T05:54:19.691Z,210
2018-08-28T05:55:19.183Z,215
2018-08-28T05:56:19.576Z,215
2018-08-28T05:58:19.417Z,220
2018-08-28T05:59:19.432Z,220
2018-08-28T06:00:19.680Z,220
2018-08-28T06:01:19.664Z,230
2018-08-28T06:02:19.406Z,225
2018-08-28T06:03:20.693Z,230
2018-08-28T06:04:19.404Z,235
2018-08-28T06:05:19.407Z,240
2018-08-28T06:06:19.391Z,245
2018-08-28T06:07:19.667Z,255
2018-08-28T06:08:19.395Z,255
2018-08-28T06:09:19.148Z,255
2018-08-28T06:10:22.997Z,240
2018-08-28T06:11:19.148Z,240
2018-08-28T06:12:19.126Z,245
2018-08-28T06:13:19.375Z,255
2018-08-28T06:14:19.374Z,265
2018-08-28T06:15:19.630Z,270
2018-08-28T06:16:19.668Z,275
2018-08-28T06:17:19.619Z,280
2018-08-28T06:18:23.438Z,285
2018-08-28T06:19:19.615Z,290
2018-08-28T06:20:22.770Z,295
2018-08-28T06:21:19.609Z,315
2018-08-28T06:22:19.607Z,320
2018-08-28T06:23:19.856Z,325
2018-08-28T06:24:19.606Z,365
2018-08-28T06:25:19.605Z,400
2018-08-28T06:26:19.484Z,425
2018-08-28T06:27:19.346Z,360
2018-08-28T06:28:19.095Z,380
2018-08-28T06:29:19.683Z,470
2018-08-28T06:30:19.588Z,480
2018-08-28T06:31:19.596Z,465
2018-08-28T06:32:19.589Z,490
2018-08-28T06:33:19.337Z,485
2018-08-28T06:34:19.613Z,505
2018-08-28T06:35:19.082Z,490
2018-08-28T06:36:19.588Z,535
2018-08-28T06:37:19.494Z,535
2018-08-28T06:38:19.083Z,550
2018-08-28T06:39:19.586Z,555
2018-08-28T06:40:19.615Z,560
2018-08-28T06:41:19.580Z,565
2018-08-28T06:42:19.583Z,575
2018-08-28T06:43:19.334Z,580
2018-08-28T06:44:19.591Z,590
2018-08-28T06:45:19.090Z,600
2018-08-28T06:46:19.331Z,610
2018-08-28T06:47:19.588Z,615
2018-08-28T06:48:19.084Z,615
2018-08-28T06:49:19.352Z,630
2018-08-28T06:50:19.600Z,635
2018-08-28T06:51:19.605Z,655
2018-08-28T06:52:19.346Z,670
2018-08-28T06:53:19.355Z,680
2018-08-28T06:54:19.348Z,685
2018-08-28T06:55:19.605Z,700
2018-08-28T06:56:19.661Z,700
2018-08-28T06:57:19.367Z,690
2018-08-28T06:58:19.619Z,625
2018-08-28T06:59:19.375Z,700
2018-08-28T07:00:19.640Z,720
2018-08-28T07:01:19.380Z,745
2018-08-28T07:02:19.526Z,645
2018-08-28T07:03:18.883Z,755
2018-08-28T07:04:19.665Z,775
2018-08-28T07:05:19.651Z,755
2018-08-28T07:06:19.658Z,775
2018-08-28T07:07:19.406Z,775
2018-08-28T07:08:19.164Z,765
2018-08-28T07:09:19.421Z,740
2018-08-28T07:10:20.080Z,755
2018-08-28T07:11:18.929Z,765
2018-08-28T07:12:19.696Z,770
2018-08-28T07:13:19.441Z,805
2018-08-28T07:14:19.701Z,810
2018-08-28T07:15:19.709Z,815
2018-08-28T07:16:19.467Z,825
2018-08-28T07:17:19.470Z,820
2018-08-28T07:18:19.728Z,850
2018-08-28T07:19:19.746Z,865
2018-08-28T07:20:19.489Z,870
2018-08-28T07:21:19.754Z,885
2018-08-28T07:22:19.771Z,885
2018-08-28T07:23:19.766Z,905
2018-08-28T07:24:19.521Z,920
2018-08-28T07:25:19.784Z,935
2018-08-28T07:26:19.685Z,940
2018-08-28T07:27:19.810Z,935
2018-08-28T07:28:19.802Z,925
2018-08-28T07:29:19.821Z,915
2018-08-28T07:30:19.827Z,915
2018-08-28T07:31:19.850Z,890
2018-08-28T07:32:19.585Z,880
2018-08-28T07:33:19.602Z,875
2018-08-28T07:34:19.603Z,875
2018-08-28T07:35:19.365Z,885
2018-08-28T07:36:19.617Z,890
2018-08-28T07:37:20.066Z,900
2018-08-28T07:38:19.630Z,890
2018-08-28T07:39:19.891Z,900
2018-08-28T07:40:19.144Z,915
2018-08-28T07:41:19.407Z,920
2018-08-28T07:42:19.664Z,945
2018-08-28T07:43:19.421Z,955
2018-08-28T07:44:19.936Z,965
2018-08-28T07:45:19.695Z,965
2018-08-28T07:46:19.953Z,955
2018-08-28T07:47:19.969Z,975
2018-08-28T07:48:20.151Z,970
2018-08-28T07:49:19.723Z,975
2018-08-28T07:50:19.743Z,970
2018-08-28T07:51:19.991Z,965
2018-08-28T07:52:19.750Z,965
2018-08-28T07:53:19.257Z,955
2018-08-28T07:54:20.020Z,955
2018-08-28T07:55:19.787Z,945
2018-08-28T07:56:20.036Z,925
2018-08-28T07:57:20.050Z,940
2018-08-28T07:58:19.808Z,945
2018-08-28T07:59:19.561Z,950
2018-08-28T08:00:19.826Z,965
2018-08-28T08:01:20.375Z,1000
2018-08-28T08:02:19.860Z,990
2018-08-28T08:03:20.108Z,965
2018-08-28T08:04:20.109Z,965
2018-08-28T08:05:20.122Z,520
2018-08-28T08:06:19.871Z,1025
2018-08-28T08:07:19.888Z,1025
2018-08-28T08:08:19.894Z,1045
2018-08-28T08:09:20.152Z,1080
2018-08-28T08:10:20.338Z,1100
2018-08-28T08:11:20.166Z,1115
2018-08-28T08:12:20.177Z,1110
2018-08-28T08:13:20.187Z,1075
2018-08-28T08:14:20.200Z,1055
2018-08-28T08:15:19.950Z,1045
2018-08-28T08:16:21.032Z,1070
2018-08-28T08:17:20.225Z,1105
2018-08-28T08:18:20.248Z,1145
2018-08-28T08:19:19.995Z,1180
2018-08-28T08:20:20.026Z,1165
2018-08-28T08:21:20.258Z,665
2018-08-28T08:22:20.590Z,575
2018-08-28T08:23:20.031Z,1190
2018-08-28T08:24:20.288Z,1175
2018-08-28T08:25:20.337Z,1165
2018-08-28T08:26:20.309Z,950
2018-08-28T08:27:19.814Z,580
2018-08-28T08:28:21.146Z,480
2018-08-28T08:29:20.089Z,480
2018-08-28T08:30:19.830Z,485
2018-08-28T08:31:20.347Z,485
2018-08-28T08:32:20.152Z,490
2018-08-28T08:33:20.108Z,495
2018-08-28T08:34:19.869Z,485
2018-08-28T08:35:19.975Z,480
2018-08-28T08:36:20.390Z,480
2018-08-28T08:37:20.403Z,480
2018-08-28T08:38:20.405Z,470
2018-08-28T08:39:20.418Z,475
2018-08-28T08:40:20.404Z,475
2018-08-28T08:41:20.160Z,480
2018-08-28T08:42:20.623Z,475
2018-08-28T08:43:20.173Z,495
2018-08-28T08:44:20.176Z,505
2018-08-28T08:45:19.932Z,505
2018-08-28T08:46:20.445Z,490
2018-08-28T08:47:20.197Z,480
2018-08-28T08:48:20.451Z,475
2018-08-28T08:49:20.207Z,490
2018-08-28T08:50:20.459Z,485
2018-08-28T08:51:20.019Z,475
2018-08-28T08:52:20.212Z,470
2018-08-28T08:53:20.470Z,470
2018-08-28T08:54:20.235Z,460
2018-08-28T08:55:20.232Z,460
2018-08-28T08:56:20.231Z,455
2018-08-28T08:57:20.154Z,450
2018-08-28T08:58:19.995Z,430
2018-08-28T08:59:20.498Z,410
2018-08-28T09:00:20.005Z,410
2018-08-28T09:01:20.502Z,430
2018-08-28T09:02:20.501Z,450
2018-08-28T09:03:20.530Z,435
2018-08-28T09:04:20.791Z,435
2018-08-28T09:05:20.518Z,435
2018-08-28T09:06:20.997Z,435
2018-08-28T09:07:20.761Z,440
2018-08-28T09:08:20.265Z,455
2018-08-28T09:09:20.269Z,465
2018-08-28T09:10:20.525Z,475
2018-08-28T09:11:20.272Z,485
2018-08-28T09:12:20.429Z,440
2018-08-28T09:13:20.346Z,415
2018-08-28T09:14:20.028Z,420
2018-08-28T09:15:20.326Z,435
2018-08-28T09:16:20.292Z,460
2018-08-28T09:17:20.313Z,490
2018-08-28T09:18:20.286Z,495
2018-08-28T09:19:20.441Z,510
2018-08-28T09:20:20.552Z,500
2018-08-28T09:21:20.291Z,460
2018-08-28T09:22:20.040Z,455
2018-08-28T09:23:20.052Z,495
2018-08-28T09:24:20.297Z,495
2018-08-28T09:25:20.048Z,485
2018-08-28T09:26:20.553Z,435
2018-08-28T09:27:20.558Z,425
2018-08-28T09:28:20.556Z,450
2018-08-28T09:29:20.306Z,475
2018-08-28T09:30:20.309Z,495
2018-08-28T09:31:20.524Z,505
2018-08-28T09:32:20.620Z,510
2018-08-28T09:33:20.320Z,490
2018-08-28T09:34:20.572Z,490
2018-08-28T09:35:20.573Z,475
2018-08-28T09:36:20.575Z,465
2018-08-28T09:37:20.580Z,455
2018-08-28T09:38:20.765Z,435
2018-08-28T09:39:20.587Z,425
2018-08-28T09:40:20.333Z,430
2018-08-28T09:41:20.339Z,430
2018-08-28T09:42:20.338Z,420
2018-08-28T09:43:20.336Z,410
2018-08-28T09:44:20.343Z,410
2018-08-28T09:45:20.595Z,405
2018-08-28T09:46:20.346Z,405
2018-08-28T09:47:20.349Z,410
2018-08-28T09:48:21.286Z,425
2018-08-28T09:49:20.612Z,440
2018-08-28T09:50:21.204Z,465
2018-08-28T09:51:20.602Z,505
2018-08-28T09:52:20.364Z,530
2018-08-28T09:53:20.621Z,535
2018-08-28T09:54:20.360Z,550
2018-08-28T09:55:20.383Z,560
2018-08-28T09:56:19.859Z,560
2018-08-28T09:57:20.374Z,560
2018-08-28T09:58:20.112Z,560
2018-08-28T09:59:20.369Z,555
2018-08-28T10:00:20.370Z,540
2018-08-28T10:01:20.631Z,530
2018-08-28T10:02:20.625Z,525
2018-08-28T10:03:20.382Z,520
2018-08-28T10:04:20.376Z,540
2018-08-28T10:05:20.399Z,535
2018-08-28T10:06:20.131Z,535
2018-08-28T10:07:20.645Z,540
2018-08-28T10:08:20.392Z,515
2018-08-28T10:09:20.388Z,485
2018-08-28T10:10:20.655Z,465
2018-08-28T10:11:20.398Z,470
2018-08-28T10:12:20.400Z,485
2018-08-28T10:13:20.403Z,500
2018-08-28T10:14:20.660Z,490
2018-08-28T10:15:20.405Z,470
2018-08-28T10:16:20.666Z,455
2018-08-28T10:17:20.619Z,430
2018-08-28T10:18:20.421Z,405
2018-08-28T10:19:20.425Z,395
2018-08-28T10:20:20.678Z,390
2018-08-28T10:21:20.428Z,390
2018-08-28T10:22:20.684Z,395
2018-08-28T10:23:20.688Z,400
2018-08-28T10:24:20.689Z,385
2018-08-28T10:25:20.688Z,385
2018-08-28T10:26:20.183Z,380
2018-08-28T10:27:20.480Z,405
2018-08-28T10:28:20.446Z,425
2018-08-28T10:29:20.698Z,450
2018-08-28T10:30:20.981Z,465
2018-08-28T10:31:20.704Z,465
2018-08-28T10:32:20.455Z,460
2018-08-28T10:33:20.204Z,440
2018-08-28T10:34:20.459Z,420
2018-08-28T10:35:20.218Z,400
2018-08-28T10:36:20.215Z,385
2018-08-28T10:37:20.725Z,375
2018-08-28T10:38:20.871Z,375
2018-08-28T10:39:20.743Z,380
2018-08-28T10:40:20.728Z,380
2018-08-28T10:41:20.494Z,375
2018-08-28T10:42:20.742Z,375
2018-08-28T10:43:20.231Z,355
2018-08-28T10:44:20.241Z,340
2018-08-28T10:45:20.498Z,330
2018-08-28T10:46:21.051Z,325
2018-08-28T10:47:20.748Z,320
2018-08-28T10:48:20.250Z,315
2018-08-28T10:49:20.503Z,310
2018-08-28T10:50:20.503Z,300
2018-08-28T10:51:20.505Z,295
2018-08-28T10:52:20.759Z,295
2018-08-28T10:53:20.515Z,300
2018-08-28T10:54:20.514Z,310
2018-08-28T10:55:20.770Z,320
2018-08-28T10:56:20.532Z,340
2018-08-28T10:57:20.266Z,360
2018-08-28T10:58:20.778Z,360
2018-08-28T10:59:20.527Z,360
2018-08-28T11:00:20.272Z,355
2018-08-28T11:01:20.276Z,360
2018-08-28T11:02:21.080Z,350
2018-08-28T11:03:20.788Z,340
2018-08-28T11:04:20.331Z,335
2018-08-28T11:05:20.279Z,320
2018-08-28T11:06:20.534Z,315
2018-08-28T11:07:20.545Z,305
2018-08-28T11:08:20.538Z,300
2018-08-28T11:09:20.544Z,305
2018-08-28T11:10:20.539Z,315
2018-08-28T11:11:20.036Z,330
2018-08-28T11:12:21.060Z,335
2018-08-28T11:13:20.543Z,345
2018-08-28T11:14:20.802Z,360
2018-08-28T11:15:20.802Z,365
2018-08-28T11:16:20.808Z,360
2018-08-28T11:17:20.808Z,360
2018-08-28T11:18:20.554Z,375
2018-08-28T11:19:20.299Z,390
2018-08-28T11:20:20.554Z,390
2018-08-28T11:21:20.559Z,390
2018-08-28T11:22:20.390Z,385
2018-08-28T11:23:20.560Z,375
2018-08-28T11:24:20.305Z,370
2018-08-28T11:25:20.559Z,365
2018-08-28T11:26:20.821Z,355
2018-08-28T11:27:20.574Z,350
2018-08-28T11:28:20.566Z,345
2018-08-28T11:29:20.828Z,345
2018-08-28T11:30:20.832Z,355
2018-08-28T11:31:20.766Z,370
2018-08-28T11:32:20.830Z,385
2018-08-28T11:33:20.574Z,405
2018-08-28T11:34:20.860Z,420
2018-08-28T11:35:20.576Z,430
2018-08-28T11:36:20.833Z,430
2018-08-28T11:37:20.834Z,430
2018-08-28T11:38:21.088Z,430
2018-08-28T11:39:20.591Z,435
2018-08-28T11:40:20.839Z,445
2018-08-28T11:41:20.834Z,450
2018-08-28T11:42:20.587Z,440
2018-08-28T11:43:20.584Z,425
2018-08-28T11:44:20.836Z,415
2018-08-28T11:45:20.841Z,410
2018-08-28T11:46:20.852Z,405
2018-08-28T11:47:21.536Z,390
2018-08-28T11:48:20.846Z,375
2018-08-28T11:49:20.850Z,370
2018-08-28T11:50:20.867Z,365
2018-08-28T11:51:20.866Z,350
2018-08-28T11:52:21.077Z,340
2018-08-28T11:53:20.704Z,335
2018-08-28T11:54:20.101Z,335
2018-08-28T11:55:20.869Z,345
2018-08-28T11:56:20.359Z,355
2018-08-28T11:57:20.372Z,350
2018-08-28T11:58:20.865Z,340
2018-08-28T11:59:20.874Z,340
2018-08-28T12:00:20.872Z,335
2018-08-28T12:01:20.628Z,330
2018-08-28T12:02:20.629Z,330
2018-08-28T12:03:20.885Z,330
2018-08-28T12:04:20.635Z,325
2018-08-28T12:05:21.418Z,330
2018-08-28T12:06:20.883Z,325
2018-08-28T12:07:21.477Z,325
2018-08-28T12:08:20.639Z,320
2018-08-28T12:09:20.887Z,320
2018-08-28T12:10:20.898Z,325
2018-08-28T12:11:20.404Z,325
2018-08-28T12:12:21.248Z,325
2018-08-28T12:13:21.288Z,325
2018-08-28T12:14:21.152Z,325
2018-08-28T12:15:20.905Z,320
2018-08-28T12:16:20.907Z,320
2018-08-28T12:17:20.909Z,320
2018-08-28T12:18:20.906Z,320
2018-08-28T12:19:20.908Z,325
2018-08-28T12:20:21.053Z,335
2018-08-28T12:21:20.670Z,345
2018-08-28T12:22:20.916Z,350
2018-08-28T12:23:20.933Z,355
2018-08-28T12:24:20.668Z,350
2018-08-28T12:25:20.669Z,355
2018-08-28T12:26:20.921Z,355
2018-08-28T12:27:20.926Z,360
2018-08-28T12:28:20.674Z,370
2018-08-28T12:29:20.423Z,375
2018-08-28T12:30:20.935Z,375
2018-08-28T12:31:20.426Z,370
2018-08-28T12:32:20.684Z,375
2018-08-28T12:33:20.935Z,375
2018-08-28T12:34:20.183Z,375
2018-08-28T12:35:20.436Z,380
2018-08-28T12:36:20.435Z,390
2018-08-28T12:37:21.724Z,400
2018-08-28T12:38:20.436Z,410
2018-08-28T12:39:20.692Z,420
2018-08-28T12:40:20.945Z,430
2018-08-28T12:41:20.948Z,440
2018-08-28T12:42:20.450Z,445
2018-08-28T12:43:20.697Z,450
2018-08-28T12:44:20.932Z,455
2018-08-28T12:45:20.951Z,460
2018-08-28T12:46:21.098Z,465
2018-08-28T12:47:20.967Z,480
2018-08-28T12:48:20.992Z,490
2018-08-28T12:49:20.711Z,495
2018-08-28T12:50:20.721Z,485
2018-08-28T12:51:20.688Z,485
2018-08-28T12:52:20.976Z,480
2018-08-28T12:53:20.742Z,470
2018-08-28T12:54:20.736Z,455
2018-08-28T12:55:20.740Z,445
2018-08-28T12:56:20.731Z,445
2018-08-28T12:57:20.488Z,445
2018-08-28T12:58:20.740Z,445
2018-08-28T12:59:20.992Z,445
2018-08-28T13:00:21.027Z,430
2018-08-28T13:01:20.758Z,415
2018-08-28T13:02:21.201Z,405
2018-08-28T13:03:20.497Z,400
2018-08-28T13:04:20.814Z,390
2018-08-28T13:05:21.011Z,385
2018-08-28T13:06:20.764Z,380
2018-08-28T13:07:21.107Z,375
2018-08-28T13:08:21.026Z,380
2018-08-28T13:09:21.035Z,380
2018-08-28T13:10:20.778Z,385
2018-08-28T13:11:21.034Z,385
2018-08-28T13:12:20.535Z,385
2018-08-28T13:13:21.052Z,385
2018-08-28T13:14:20.787Z,390
2018-08-28T13:15:21.042Z,405
2018-08-28T13:16:21.045Z,430
2018-08-28T13:17:21.059Z,430
2018-08-28T13:18:20.553Z,430
2018-08-28T13:19:21.056Z,420
2018-08-28T13:20:20.307Z,405
2018-08-28T13:21:21.067Z,385
2018-08-28T13:22:20.810Z,375
2018-08-28T13:23:20.814Z,360
2018-08-28T13:24:20.573Z,350
2018-08-28T13:25:21.015Z,335
2018-08-28T13:26:21.145Z,340
2018-08-28T13:27:21.214Z,345
2018-08-28T13:28:20.601Z,350
2018-08-28T13:29:21.088Z,355
2018-08-28T13:30:20.849Z,365
2018-08-28T13:31:21.091Z,375
2018-08-28T13:32:20.850Z,380
2018-08-28T13:33:21.107Z,385
2018-08-28T13:34:20.853Z,390
2018-08-28T13:35:21.134Z,395
2018-08-28T13:36:21.120Z,400
2018-08-28T13:37:20.621Z,400
2018-08-28T13:38:20.872Z,400
2018-08-28T13:39:20.614Z,395
2018-08-28T13:40:21.256Z,390
2018-08-28T13:41:21.198Z,390
2018-08-28T13:42:20.624Z,395
2018-08-28T13:43:20.121Z,405
2018-08-28T13:44:20.901Z,405
2018-08-28T13:45:21.143Z,395
2018-08-28T13:46:20.889Z,395
2018-08-28T13:47:21.891Z,390
2018-08-28T13:48:20.134Z,380
2018-08-28T13:49:21.160Z,365
2018-08-28T13:50:21.156Z,345
2018-08-28T13:51:21.174Z,325
2018-08-28T13:52:21.173Z,310
2018-08-28T13:53:21.161Z,300
2018-08-28T13:54:21.684Z,295
2018-08-28T13:55:20.926Z,300
2018-08-28T13:56:20.665Z,305
2018-08-28T13:57:20.927Z,310
2018-08-28T13:58:20.671Z,315
2018-08-28T13:59:21.206Z,320
2018-08-28T14:00:21.399Z,325
2018-08-28T14:01:21.204Z,325
2018-08-28T14:02:21.203Z,325
2018-08-28T14:03:20.687Z,325
2018-08-28T14:04:20.959Z,325
2018-08-28T14:05:20.704Z,330
2018-08-28T14:06:20.947Z,340
2018-08-28T14:07:21.220Z,340
2018-08-28T14:08:20.696Z,345
2018-08-28T14:09:20.947Z,335
2018-08-28T14:10:21.203Z,330
2018-08-28T14:11:20.713Z,330
2018-08-28T14:12:20.968Z,335
2018-08-28T14:13:21.411Z,340
2018-08-28T14:14:20.991Z,345
2018-08-28T14:15:20.963Z,350